Overview Statistics Trail Chart Weather Telemetry Raw packets
 

This is the latest recevied weather packets stored in our database for station/object N9DMT-13. If no packets are shown the sender has not sent any weather packets the latest 10 day(s).

<< 57 58 59 60 61 62 63 >>
Time Temp. Humidity Pressure Rain* Wind** Luminosity Snow
1777468522 8.89° C 72% 983.9 hPa 0 mm - - -
1777468221 8.89° C 72% 983.6 hPa 0 mm - - -
1777467921 8.89° C 70% 983.6 hPa 0 mm - - -
1777467620 8.33° C 78% 983.9 hPa 0 mm - - -
1777467319 7.78° C 77% 983.9 hPa 0 mm - - -
1777467018 7.78° C 81% 983.9 hPa 0 mm - - -
1777466718 7.22° C 85% 984 hPa 0 mm - - -
1777466417 7.22° C 84% 983.6 hPa 0 mm - - -
1777466117 6.67° C 86% 983.8 hPa 0 mm - - -
1777465816 6.67° C 87% 983.7 hPa 0 mm - - -
1777465515 6.67° C 89% 983.6 hPa 0 mm - - -
1777465214 6.67° C 91% 983.8 hPa 0 mm - - -
1777464914 6.67° C 92% 983.8 hPa 0 mm - - -
1777464613 6.11° C 94% 983.9 hPa 0 mm - - -
1777464312 6.11° C 94% 984.1 hPa 0 mm - - -
1777464012 6.11° C 94% 984 hPa 0 mm - - -
1777463711 6.11° C 94% 983.8 hPa 0 mm - - -
1777463410 6.11° C 94% 983.9 hPa 0 mm - - -
1777463109 5.56° C 94% 983.9 hPa 0 mm - - -
1777462809 5.56° C 94% 983.9 hPa 0 mm - - -
1777462508 6.11° C 94% 983.9 hPa 0 mm - - -
1777462208 5.56° C 94% 983.8 hPa 0 mm - - -
1777461907 5.56° C 94% 983.8 hPa 0 mm - - -
1777461607 6.11° C 94% 983.7 hPa 0 mm - - -
1777461306 6.11° C 94% 983.8 hPa 0 mm - - -

* Rain latest hour (hover to see other rain measurements)
** Current wind speed in m/s (hover to see current wind gust speed)